createdAt,value
2019-03-16T00:02:11.398Z,99918.04
2019-03-16T00:04:42.873Z,99915.48
2019-03-16T00:07:11.298Z,99926.35
2019-03-16T00:09:39.777Z,99931.27
2019-03-16T00:12:08.239Z,99916.20
2019-03-16T00:14:36.697Z,99925.55
2019-03-16T00:17:05.193Z,99930.50
2019-03-16T00:19:33.675Z,99937.11
2019-03-16T00:22:02.089Z,99936.09
2019-03-16T00:24:30.632Z,99898.21
2019-03-16T00:26:59.093Z,99940.28
2019-03-16T00:29:27.535Z,99940.14
2019-03-16T00:31:58.700Z,99943.01
2019-03-16T00:34:27.360Z,99939.25
2019-03-16T00:36:55.926Z,99949.13
2019-03-16T00:39:24.545Z,99941.48
2019-03-16T00:41:52.971Z,99949.48
2019-03-16T00:44:21.455Z,99951.27
2019-03-16T00:46:49.933Z,99958.69
2019-03-16T00:49:18.383Z,99960.69
2019-03-16T00:51:46.800Z,99966.95
2019-03-16T00:54:15.264Z,99963.98
2019-03-16T00:56:43.801Z,99972.25
2019-03-16T00:59:12.281Z,99975.33
2019-03-16T01:01:40.741Z,99975.41
2019-03-16T01:04:09.264Z,99974.59
2019-03-16T01:06:37.697Z,99979.81
2019-03-16T01:09:07.964Z,99990.03
2019-03-16T01:11:36.466Z,99992.25
2019-03-16T01:14:04.973Z,99982.29
2019-03-16T01:16:33.436Z,99997.83
2019-03-16T01:19:01.879Z,99985.75
2019-03-16T01:21:30.412Z,99988.47
2019-03-16T01:23:58.860Z,99989.01
2019-03-16T01:26:27.305Z,99985.39
2019-03-16T01:28:55.789Z,99991.29
2019-03-16T01:31:24.245Z,99998.80
2019-03-16T01:33:53.215Z,99999.66
2019-03-16T01:36:21.651Z,100004.08
2019-03-16T01:38:50.155Z,99999.75
2019-03-16T01:41:18.597Z,99994.00
2019-03-16T01:43:47.021Z,99997.08
2019-03-16T01:46:15.966Z,99997.08
2019-03-16T01:48:44.384Z,99996.05
2019-03-16T01:51:13.272Z,99987.83
2019-03-16T01:53:41.784Z,99992.97
2019-03-16T01:56:10.460Z,100001.14
2019-03-16T01:58:38.900Z,99996.82
2019-03-16T02:01:07.402Z,99989.73
2019-03-16T02:03:35.908Z,99999.31
2019-03-16T02:06:04.594Z,99996.59
2019-03-16T02:08:33.049Z,100002.09
2019-03-16T02:11:01.472Z,99997.41
2019-03-16T02:13:29.915Z,100005.80
2019-03-16T02:16:10.277Z,100000.05
2019-03-16T02:18:28.809Z,100000.19
2019-03-16T02:20:57.282Z,100007.70
2019-03-16T02:23:25.703Z,100014.48
2019-03-16T02:25:54.287Z,100011.98
2019-03-16T02:28:22.690Z,100009.54
2019-03-16T02:30:51.133Z,100012.41
2019-03-16T02:33:19.572Z,100009.05
2019-03-16T02:35:48.015Z,100005.42
2019-03-16T02:38:16.454Z,100007.93
2019-03-16T02:40:44.906Z,100012.72
2019-03-16T02:43:13.335Z,100018.08
2019-03-16T02:45:41.816Z,100033.45
2019-03-16T02:48:10.381Z,100026.02
2019-03-16T02:50:38.770Z,100026.24
2019-03-16T02:53:07.232Z,100043.98
2019-03-16T02:55:35.697Z,100034.94
2019-03-16T02:58:04.228Z,100037.66
2019-03-16T03:00:32.643Z,100035.88
2019-03-16T03:03:01.131Z,100036.84
2019-03-16T03:05:29.568Z,100041.84
2019-03-16T03:07:58.037Z,100044.70
2019-03-16T03:10:26.583Z,100048.09
2019-03-16T03:12:54.993Z,100052.95
2019-03-16T03:15:23.448Z,100049.20
2019-03-16T03:17:51.989Z,100057.60
2019-03-16T03:20:20.416Z,100064.57
2019-03-16T03:22:48.855Z,100068.11
2019-03-16T03:25:17.335Z,100079.01
2019-03-16T03:27:45.790Z,100092.38
2019-03-16T03:30:15.104Z,100096.13
2019-03-16T03:32:43.815Z,100093.41
2019-03-16T03:35:12.306Z,100102.70
2019-03-16T03:37:40.791Z,100096.45
2019-03-16T03:40:10.689Z,100100.92
2019-03-16T03:42:39.471Z,100117.72
2019-03-16T03:45:10.614Z,100120.72
2019-03-16T03:47:39.120Z,100121.97
2019-03-16T03:50:10.494Z,100129.69
2019-03-16T03:52:39.112Z,100117.58
2019-03-16T03:55:09.892Z,100105.06
2019-03-16T03:57:38.479Z,100108.64
2019-03-16T04:00:15.731Z,100106.39
2019-03-16T04:02:44.260Z,100108.56
2019-03-16T04:05:12.934Z,100099.52
2019-03-16T04:07:41.426Z,100094.80
2019-03-16T04:10:11.391Z,100094.80
2019-03-16T04:12:39.925Z,100098.02
2019-03-16T04:15:10.703Z,100105.02
2019-03-16T04:17:39.264Z,100106.84
2019-03-16T04:20:10.459Z,100099.55
2019-03-16T04:22:38.893Z,100096.16
2019-03-16T04:25:07.631Z,100094.77
2019-03-16T04:27:36.085Z,100103.84
2019-03-16T04:30:06.310Z,100108.23
2019-03-16T04:32:34.867Z,100105.80
2019-03-16T04:35:03.345Z,100104.48
2019-03-16T04:37:31.823Z,100107.34
2019-03-16T04:40:00.416Z,100101.77
2019-03-16T04:42:28.959Z,100100.59
2019-03-16T04:44:57.531Z,100096.77
2019-03-16T04:47:25.937Z,100096.77
2019-03-16T04:49:54.431Z,100098.30
2019-03-16T04:52:22.965Z,100103.33
2019-03-16T04:54:51.432Z,100109.78
2019-03-16T04:57:19.851Z,100104.64
2019-03-16T04:59:48.292Z,100094.96
2019-03-16T05:02:16.746Z,100105.26
2019-03-16T05:04:45.268Z,100101.83
2019-03-16T05:07:13.707Z,100081.03
2019-03-16T05:09:42.211Z,100115.74
2019-03-16T05:12:10.837Z,100121.42
2019-03-16T05:14:39.302Z,100116.92
2019-03-16T05:17:07.783Z,100128.86
2019-03-16T05:19:36.212Z,100124.39
2019-03-16T05:22:04.637Z,100125.04
2019-03-16T05:24:33.104Z,100123.29
2019-03-16T05:27:01.597Z,100135.19
2019-03-16T05:29:30.053Z,100130.73
2019-03-16T05:31:58.563Z,100127.47
2019-03-16T05:34:27.000Z,100129.05
2019-03-16T05:36:56.221Z,100129.34
2019-03-16T05:39:24.853Z,100126.48
2019-03-16T05:41:53.404Z,100139.27
2019-03-16T05:44:21.809Z,100140.52
2019-03-16T05:46:50.452Z,100141.77
2019-03-16T05:49:18.839Z,100139.20
2019-03-16T05:51:47.294Z,100143.99
2019-03-16T05:54:16.094Z,100148.97
2019-03-16T05:56:44.593Z,100146.46
2019-03-16T05:59:13.018Z,100146.21
2019-03-16T06:01:41.568Z,100148.72
2019-03-16T06:04:10.011Z,100151.39
2019-03-16T06:06:38.566Z,100141.53
2019-03-16T06:09:07.609Z,100140.95
2019-03-16T06:11:36.092Z,100143.45
2019-03-16T06:14:07.924Z,100134.48
2019-03-16T06:16:37.048Z,100130.66
2019-03-16T06:19:05.517Z,100130.05
2019-03-16T06:21:34.222Z,100127.64
2019-03-16T06:24:07.286Z,100127.03
2019-03-16T06:26:35.864Z,100131.11
2019-03-16T06:29:04.238Z,100134.25
2019-03-16T06:31:32.816Z,100135.15
2019-03-16T06:34:07.763Z,100140.52
2019-03-16T06:36:36.310Z,100131.53
2019-03-16T06:39:07.114Z,100145.02
2019-03-16T06:41:35.714Z,100149.09
2019-03-16T06:44:04.340Z,100140.60
2019-03-16T06:46:32.783Z,100152.09
2019-03-16T06:49:01.241Z,100169.34
2019-03-16T06:51:29.766Z,100168.73
2019-03-16T06:53:58.234Z,100166.37
2019-03-16T06:56:26.931Z,100174.95
2019-03-16T06:58:58.349Z,100175.31
2019-03-16T07:01:25.631Z,100189.31
2019-03-16T07:03:54.055Z,100197.70
2019-03-16T07:06:22.764Z,100187.91
2019-03-16T07:08:51.177Z,100198.28
2019-03-16T07:11:19.742Z,100198.47
2019-03-16T07:13:48.190Z,100204.93
2019-03-16T07:16:16.639Z,100203.73
2019-03-16T07:18:58.062Z,100200.55
2019-03-16T07:21:15.251Z,100211.92
2019-03-16T07:23:43.969Z,100218.89
2019-03-16T07:26:15.055Z,100217.75
2019-03-16T07:28:42.957Z,100220.56
2019-03-16T07:31:11.400Z,100225.14
2019-03-16T07:33:39.843Z,100238.40
2019-03-16T07:36:08.434Z,100230.24
2019-03-16T07:38:36.936Z,100226.21
2019-03-16T07:41:05.371Z,100229.27
2019-03-16T07:43:33.900Z,100233.55
2019-03-16T07:46:02.328Z,100233.55
2019-03-16T07:48:30.827Z,100232.36
2019-03-16T07:50:59.256Z,100227.66
2019-03-16T07:53:27.769Z,100227.68
2019-03-16T07:55:56.307Z,100234.88
2019-03-16T07:58:24.773Z,100228.52
2019-03-16T08:00:53.197Z,100240.81
2019-03-16T08:03:21.625Z,100221.23
2019-03-16T08:05:50.488Z,100235.27
2019-03-16T08:08:19.186Z,100235.27
2019-03-16T08:10:47.667Z,100237.61
2019-03-16T08:13:16.190Z,100237.05
2019-03-16T08:15:44.634Z,100237.55
2019-03-16T08:18:13.164Z,100222.95
2019-03-16T08:20:41.637Z,100229.03
2019-03-16T08:23:10.089Z,100226.77
2019-03-16T08:25:38.543Z,100221.86
2019-03-16T08:28:06.964Z,100218.14
2019-03-16T08:30:35.414Z,100222.02
2019-03-16T08:33:03.892Z,100221.51
2019-03-16T08:35:32.369Z,100210.85
2019-03-16T08:38:00.772Z,100211.30
2019-03-16T08:40:29.346Z,100217.58
2019-03-16T08:42:57.795Z,100217.02
2019-03-16T08:45:26.294Z,100214.81
2019-03-16T08:47:54.813Z,100210.85
2019-03-16T08:50:23.358Z,100205.44
2019-03-16T08:52:53.747Z,100204.24
2019-03-16T08:55:22.142Z,100197.72
2019-03-16T08:57:50.647Z,100206.59
2019-03-16T09:00:19.201Z,100210.94
2019-03-16T09:02:47.651Z,100207.58
2019-03-16T09:05:16.119Z,100208.61
2019-03-16T09:07:44.669Z,100211.05
2019-03-16T09:10:13.271Z,100195.55
2019-03-16T09:12:53.947Z,100194.80
2019-03-16T09:15:14.249Z,100187.09
2019-03-16T09:17:42.792Z,100185.92
2019-03-16T09:20:11.462Z,100181.03
2019-03-16T09:22:39.902Z,100180.20
2019-03-16T09:25:09.936Z,100178.63
2019-03-16T09:27:38.421Z,100165.70
2019-03-16T09:30:15.428Z,100166.02
2019-03-16T09:32:43.876Z,100164.92
2019-03-16T09:35:12.428Z,100169.88
2019-03-16T09:37:40.860Z,100159.01
2019-03-16T09:40:10.669Z,100161.25
2019-03-16T09:42:39.263Z,100154.80
2019-03-16T09:45:10.417Z,100160.84
2019-03-16T09:47:38.981Z,100157.98
2019-03-16T09:50:09.246Z,100155.48
2019-03-16T09:52:37.761Z,100146.73
2019-03-16T09:55:08.522Z,100137.41
2019-03-16T09:57:37.221Z,100108.11
2019-03-16T10:00:08.705Z,100119.32
2019-03-16T10:02:37.184Z,100111.61
2019-03-16T10:05:06.275Z,100105.28
2019-03-16T10:07:34.712Z,100111.03
2019-03-16T10:10:03.676Z,100100.28
2019-03-16T10:12:33.119Z,100086.66
2019-03-16T10:15:01.826Z,100082.80
2019-03-16T10:17:30.624Z,100077.72
2019-03-16T10:19:59.058Z,100069.83
2019-03-16T10:22:27.510Z,100058.96
2019-03-16T10:24:56.343Z,100052.17
2019-03-16T10:27:24.785Z,100055.88
2019-03-16T10:29:53.222Z,100033.77
2019-03-16T10:32:21.943Z,100029.81
2019-03-16T10:34:50.377Z,99993.37
2019-03-16T10:37:18.816Z,100024.77
2019-03-16T10:39:47.294Z,100020.52
2019-03-16T10:42:15.838Z,100014.34
2019-03-16T10:44:44.264Z,100008.16
2019-03-16T10:47:12.787Z,100001.09
2019-03-16T10:49:41.300Z,99992.34
2019-03-16T10:52:09.742Z,99985.41
2019-03-16T10:54:38.272Z,99978.27
2019-03-16T10:57:06.716Z,99972.84
2019-03-16T10:59:35.118Z,99967.20
2019-03-16T11:02:03.554Z,99961.98
2019-03-16T11:04:32.007Z,99958.27
2019-03-16T11:07:00.619Z,99957.81
2019-03-16T11:09:29.137Z,99962.70
2019-03-16T11:11:57.737Z,99959.62
2019-03-16T11:14:26.379Z,99948.39
2019-03-16T11:16:54.842Z,99941.69
2019-03-16T11:19:23.276Z,99937.94
2019-03-16T11:21:51.739Z,99930.84
2019-03-16T11:24:20.176Z,99923.64
2019-03-16T11:26:48.632Z,99923.20
2019-03-16T11:29:17.191Z,99920.73
2019-03-16T11:31:45.669Z,99919.25
2019-03-16T11:34:14.074Z,99916.82
2019-03-16T11:36:42.603Z,99902.48
2019-03-16T11:39:11.053Z,99899.91
2019-03-16T11:41:39.519Z,99888.50
2019-03-16T11:44:07.956Z,99887.94
2019-03-16T11:46:36.389Z,99876.08
2019-03-16T11:49:04.850Z,99875.34
2019-03-16T11:51:33.292Z,99868.19
2019-03-16T11:54:01.887Z,99867.35
2019-03-16T11:56:30.359Z,99851.31
2019-03-16T11:58:58.803Z,99856.77
2019-03-16T12:01:27.313Z,99847.42
2019-03-16T12:03:55.826Z,99846.72
2019-03-16T12:06:24.291Z,99833.83
2019-03-16T12:08:52.759Z,99830.69
2019-03-16T12:11:21.508Z,99836.95
2019-03-16T12:13:49.927Z,99829.50
2019-03-16T12:16:18.448Z,99823.48
2019-03-16T12:18:46.924Z,99825.78
2019-03-16T12:21:15.344Z,99805.68
2019-03-16T12:23:43.776Z,99819.09
2019-03-16T12:26:12.239Z,99815.33
2019-03-16T12:28:40.661Z,99808.66
2019-03-16T12:31:09.618Z,99812.48
2019-03-16T12:33:38.026Z,99803.86
2019-03-16T12:36:06.577Z,99803.55
2019-03-16T12:38:35.048Z,99800.23
2019-03-16T12:41:03.471Z,99792.75
2019-03-16T12:43:32.233Z,99789.59
2019-03-16T12:46:00.736Z,99770.38
2019-03-16T12:48:29.156Z,99775.13
2019-03-16T12:50:57.775Z,99770.01
2019-03-16T12:53:26.300Z,99778.84
2019-03-16T12:55:54.793Z,99773.59
2019-03-16T12:58:23.243Z,99769.55
2019-03-16T13:00:51.797Z,99766.92
2019-03-16T13:03:20.263Z,99765.92
2019-03-16T13:05:48.747Z,99756.00
2019-03-16T13:08:17.227Z,99749.20
2019-03-16T13:10:45.673Z,99750.19
2019-03-16T13:13:14.762Z,99750.45
2019-03-16T13:15:43.234Z,99758.46
2019-03-16T13:18:11.688Z,99745.01
2019-03-16T13:20:40.350Z,99763.25
2019-03-16T13:23:09.342Z,99758.34
2019-03-16T13:25:37.787Z,99760.08
2019-03-16T13:28:06.252Z,99745.73
2019-03-16T13:30:34.909Z,99741.81
2019-03-16T13:33:03.358Z,99742.56
2019-03-16T13:35:31.920Z,99753.74
2019-03-16T13:38:00.351Z,99747.34
2019-03-16T13:40:28.879Z,99738.13
2019-03-16T13:42:58.024Z,99739.13
2019-03-16T13:45:26.526Z,99732.33
2019-03-16T13:47:54.980Z,99731.81
2019-03-16T13:50:23.428Z,99741.25
2019-03-16T13:52:52.156Z,99733.81
2019-03-16T13:55:20.609Z,99728.16
2019-03-16T13:57:49.182Z,99727.37
2019-03-16T14:00:19.463Z,99732.92
2019-03-16T14:02:47.980Z,99725.86
2019-03-16T14:05:19.708Z,99733.78
2019-03-16T14:07:47.181Z,99718.56
2019-03-16T14:10:21.001Z,99712.27
2019-03-16T14:12:49.429Z,99717.83
2019-03-16T14:15:17.967Z,99723.34
2019-03-16T14:17:46.419Z,99712.79
2019-03-16T14:20:15.803Z,99709.88
2019-03-16T14:22:44.267Z,99709.50
2019-03-16T14:25:12.688Z,99721.45
2019-03-16T14:27:41.174Z,99716.02
2019-03-16T14:30:25.526Z,99714.75
2019-03-16T14:32:44.813Z,99714.02
2019-03-16T14:35:13.407Z,99691.84
2019-03-16T14:37:42.285Z,99695.36
2019-03-16T14:40:13.155Z,99680.77
2019-03-16T14:42:41.960Z,99694.61
2019-03-16T14:45:12.614Z,99693.84
2019-03-16T14:47:41.293Z,99699.87
2019-03-16T14:50:20.703Z,99696.87
2019-03-16T14:52:49.128Z,99709.45
2019-03-16T14:55:17.591Z,99708.56
2019-03-16T14:57:46.106Z,99695.20
2019-03-16T15:00:16.193Z,99685.54
2019-03-16T15:02:46.568Z,99695.72
2019-03-16T15:05:15.202Z,99708.42
2019-03-16T15:07:43.658Z,99689.28
2019-03-16T15:10:17.091Z,99693.05
2019-03-16T15:12:45.634Z,99700.34
2019-03-16T15:15:15.712Z,99695.80
2019-03-16T15:17:44.158Z,99685.09
2019-03-16T15:20:13.889Z,99687.08
2019-03-16T15:22:42.798Z,99688.34
2019-03-16T15:25:12.277Z,99677.89
2019-03-16T15:27:40.754Z,99681.05
2019-03-16T15:30:19.181Z,99672.13
2019-03-16T15:32:47.614Z,99674.02
2019-03-16T15:35:16.031Z,99668.98
2019-03-16T15:37:44.491Z,99663.95
2019-03-16T15:40:14.286Z,99679.31
2019-03-16T15:42:42.764Z,99670.39
2019-03-16T15:45:28.876Z,99669.14
2019-03-16T15:47:57.432Z,99679.20
2019-03-16T15:50:26.006Z,99679.98
2019-03-16T15:52:54.551Z,99658.84
2019-03-16T15:55:23.301Z,99665.77
2019-03-16T15:57:51.775Z,99660.73
2019-03-16T16:00:20.558Z,99653.08
2019-03-16T16:02:49.074Z,99677.73
2019-03-16T16:05:17.561Z,99674.73
2019-03-16T16:07:46.097Z,99659.27
2019-03-16T16:10:15.659Z,99665.45
2019-03-16T16:12:44.154Z,99665.23
2019-03-16T16:15:12.893Z,99667.48
2019-03-16T16:17:41.408Z,99652.91
2019-03-16T16:20:19.007Z,99660.98
2019-03-16T16:22:47.527Z,99656.50
2019-03-16T16:25:16.029Z,99662.53
2019-03-16T16:27:44.469Z,99655.24
2019-03-16T16:30:19.921Z,99657.64
2019-03-16T16:32:48.453Z,99647.95
2019-03-16T16:35:17.152Z,99647.09
2019-03-16T16:37:45.754Z,99653.77
2019-03-16T16:40:22.591Z,99646.33
2019-03-16T16:42:51.128Z,99641.30
2019-03-16T16:45:19.651Z,99637.89
2019-03-16T16:47:48.179Z,99640.92
2019-03-16T16:50:24.091Z,99624.31
2019-03-16T16:52:52.550Z,99627.82
2019-03-16T16:55:21.171Z,99637.22
2019-03-16T16:57:49.619Z,99628.78
2019-03-16T17:00:23.052Z,99628.00
2019-03-16T17:02:51.510Z,99636.28
2019-03-16T17:05:20.023Z,99626.59
2019-03-16T17:07:48.489Z,99622.17
2019-03-16T17:10:17.534Z,99623.14
2019-03-16T17:12:46.116Z,99616.84
2019-03-16T17:15:15.800Z,99611.81
2019-03-16T17:17:44.241Z,99595.50
2019-03-16T17:20:14.050Z,99601.00
2019-03-16T17:22:42.689Z,99595.97
2019-03-16T17:25:12.404Z,99595.59
2019-03-16T17:27:40.832Z,99586.38
2019-03-16T17:30:21.202Z,99590.94
2019-03-16T17:32:49.778Z,99572.67
2019-03-16T17:35:18.258Z,99567.23
2019-03-16T17:37:46.695Z,99579.72
2019-03-16T17:40:16.188Z,99584.86
2019-03-16T17:42:44.693Z,99584.00
2019-03-16T17:45:15.117Z,99580.34
2019-03-16T17:47:43.563Z,99589.52
2019-03-16T17:50:13.568Z,99595.81
2019-03-16T17:52:42.009Z,99587.11
2019-03-16T17:55:12.080Z,99595.92
2019-03-16T17:57:40.521Z,99602.73
2019-03-16T18:00:14.370Z,99601.84
2019-03-16T18:02:51.420Z,99583.58
2019-03-16T18:05:13.238Z,99601.80
2019-03-16T18:07:41.767Z,99597.64
2019-03-16T18:10:11.654Z,99593.66
2019-03-16T18:12:40.448Z,99605.71
2019-03-16T18:15:13.335Z,99601.05
2019-03-16T18:17:41.740Z,99594.13
2019-03-16T18:20:18.276Z,99591.98
2019-03-16T18:22:47.663Z,99594.23
2019-03-16T18:25:17.267Z,99582.80
2019-03-16T18:27:46.484Z,99586.83
2019-03-16T18:30:19.936Z,99589.83
2019-03-16T18:32:48.381Z,99587.93
2019-03-16T18:35:16.811Z,99588.78
2019-03-16T18:37:46.295Z,99586.89
2019-03-16T18:40:15.547Z,99585.15
2019-03-16T18:42:43.995Z,99570.41
2019-03-16T18:45:18.209Z,99570.79
2019-03-16T18:47:46.661Z,99571.30
2019-03-16T18:50:15.101Z,99579.23
2019-03-16T18:52:43.532Z,99585.62
2019-03-16T18:55:13.577Z,99583.75
2019-03-16T18:57:42.286Z,99576.60
2019-03-16T19:00:13.635Z,99581.64
2019-03-16T19:02:42.199Z,99577.86
2019-03-16T19:05:10.777Z,99579.76
2019-03-16T19:07:39.309Z,99577.13
2019-03-16T19:10:11.054Z,99574.98
2019-03-16T19:12:39.772Z,99570.73
2019-03-16T19:15:11.264Z,99575.77
2019-03-16T19:17:39.801Z,99567.44
2019-03-16T19:20:13.558Z,99561.92
2019-03-16T19:22:42.032Z,99568.48
2019-03-16T19:25:13.392Z,99563.44
2019-03-16T19:27:41.863Z,99562.30
2019-03-16T19:30:12.926Z,99565.08
2019-03-16T19:32:41.370Z,99564.97
2019-03-16T19:35:10.072Z,99554.12
2019-03-16T19:37:38.531Z,99556.88
2019-03-16T19:40:10.123Z,99559.14
2019-03-16T19:42:38.694Z,99568.05
2019-03-16T19:45:09.580Z,99561.77
2019-03-16T19:47:38.160Z,99558.87
2019-03-16T19:50:14.099Z,99557.61
2019-03-16T19:52:42.833Z,99560.50
2019-03-16T19:55:12.616Z,99554.20
2019-03-16T19:57:41.190Z,99544.03
2019-03-16T20:00:15.874Z,99554.31
2019-03-16T20:02:50.139Z,99548.50
2019-03-16T20:05:14.754Z,99549.02
2019-03-16T20:07:43.257Z,99551.37
2019-03-16T20:10:19.590Z,99539.16
2019-03-16T20:12:48.301Z,99544.19
2019-03-16T20:15:17.059Z,99559.17
2019-03-16T20:17:45.671Z,99551.21
2019-03-16T20:20:20.265Z,99542.80
2019-03-16T20:22:47.944Z,99555.77
2019-03-16T20:25:16.478Z,99548.11
2019-03-16T20:27:44.951Z,99546.70
2019-03-16T20:30:14.427Z,99561.55
2019-03-16T20:32:42.932Z,99554.27
2019-03-16T20:35:11.955Z,99553.00
2019-03-16T20:37:40.424Z,99553.00
2019-03-16T20:40:16.185Z,99536.53
2019-03-16T20:42:44.679Z,99546.70
2019-03-16T20:45:13.743Z,99551.00
2019-03-16T20:47:42.258Z,99547.11
2019-03-16T20:50:15.784Z,99544.97
2019-03-16T20:52:44.260Z,99543.45
2019-03-16T20:55:12.877Z,99540.92
2019-03-16T20:57:41.299Z,99544.81
2019-03-16T21:00:15.975Z,99538.41
2019-03-16T21:02:44.464Z,99537.52
2019-03-16T21:05:13.297Z,99537.63
2019-03-16T21:07:41.793Z,99518.27
2019-03-16T21:10:11.898Z,99522.41
2019-03-16T21:12:40.784Z,99522.05
2019-03-16T21:15:16.466Z,99514.65
2019-03-16T21:17:44.994Z,99522.52
2019-03-16T21:20:18.060Z,99515.75
2019-03-16T21:22:46.457Z,99518.64
2019-03-16T21:25:15.798Z,99515.64
2019-03-16T21:27:44.254Z,99508.94
2019-03-16T21:30:18.295Z,99513.87
2019-03-16T21:32:46.826Z,99508.84
2019-03-16T21:35:15.272Z,99510.98
2019-03-16T21:37:44.583Z,99492.47
2019-03-16T21:40:14.659Z,99496.35
2019-03-16T21:42:43.081Z,99499.65
2019-03-16T21:45:15.148Z,99490.73
2019-03-16T21:47:44.036Z,99490.47
2019-03-16T21:50:16.250Z,99483.28
2019-03-16T21:52:45.153Z,99470.86
2019-03-16T21:55:14.853Z,99462.21
2019-03-16T21:57:43.442Z,99459.80
2019-03-16T22:00:18.687Z,99457.17
2019-03-16T22:02:47.180Z,99457.55
2019-03-16T22:05:15.701Z,99450.38
2019-03-16T22:07:44.218Z,99448.39
2019-03-16T22:10:13.916Z,99447.64
2019-03-16T22:12:43.310Z,99444.23
2019-03-16T22:15:13.220Z,99452.27
2019-03-16T22:17:41.692Z,99438.32
2019-03-16T22:20:13.028Z,99424.10
2019-03-16T22:22:41.536Z,99430.77
2019-03-16T22:25:11.436Z,99420.22
2019-03-16T22:27:39.911Z,99426.00
2019-03-16T22:30:17.034Z,99425.26
2019-03-16T22:32:45.532Z,99423.89
2019-03-16T22:35:14.285Z,99411.41
2019-03-16T22:37:42.776Z,99413.55
2019-03-16T22:40:15.413Z,99418.97
2019-03-16T22:42:43.911Z,99400.45
2019-03-16T22:45:13.511Z,99401.34
2019-03-16T22:47:41.999Z,99400.09
2019-03-16T22:50:13.250Z,99387.26
2019-03-16T22:52:41.682Z,99391.03
2019-03-16T22:55:10.122Z,99392.80
2019-03-16T22:57:38.555Z,99393.28
2019-03-16T23:00:12.752Z,99381.95
2019-03-16T23:02:41.392Z,99376.55
2019-03-16T23:05:11.134Z,99371.14
2019-03-16T23:07:39.545Z,99359.81
2019-03-16T23:10:10.019Z,99359.91
2019-03-16T23:12:38.461Z,99366.58
2019-03-16T23:15:09.415Z,99359.44
2019-03-16T23:17:37.874Z,99348.48
2019-03-16T23:20:07.553Z,99348.69
2019-03-16T23:22:36.072Z,99349.67
2019-03-16T23:25:06.675Z,99345.89
2019-03-16T23:27:35.164Z,99338.34
2019-03-16T23:30:05.052Z,99332.56
2019-03-16T23:32:33.497Z,99328.38
2019-03-16T23:35:02.205Z,99330.89
2019-03-16T23:37:30.634Z,99332.94
2019-03-16T23:39:59.068Z,99324.50
2019-03-16T23:42:27.548Z,99319.36
2019-03-16T23:44:55.957Z,99327.39
2019-03-16T23:47:24.461Z,99321.98
2019-03-16T23:49:52.890Z,99318.20
2019-03-16T23:52:21.429Z,99325.38
2019-03-16T23:54:49.840Z,99311.91
2019-03-16T23:57:18.327Z,99307.66
2019-03-16T23:59:46.733Z,99313.55
